Time;durP1;ratioP1;P1;durP2;ratioP2;P2;SDS_P1;SDS_P2;PMS_P1;PMS_P2;Temp;Humidity;BMP_temperature;BMP_pressure;BME280_temperature;BME280_humidity;BME280_pressure;Samples;Min_cycle;Max_cycle;Signal;HPM_P1;HPM_P2
2024/04/09 00:01:22;;;;;;;9.00;4.20;;;;;;;16.67;50.44;100015.05;105475;1256;61276;-69
2024/04/09 00:03:50;;;;;;;7.40;4.00;;;;;;;16.62;50.58;100015.82;105233;1257;231383;-71
2024/04/09 00:07:25;;;;;;;8.30;4.70;;;;;;;16.59;50.75;100018.33;102543;1295;601128;-70
2024/04/09 00:09:55;;;;;;;7.20;3.80;;;;;;;16.55;50.77;100019.66;104649;1268;59791;-70
2024/04/09 00:12:22;;;;;;;7.30;4.00;;;;;;;16.52;50.89;100020.56;105127;1267;60344;-72
2024/04/09 00:14:50;;;;;;;8.30;4.70;;;;;;;16.47;50.97;100022.90;104717;1267;72046;-71
2024/04/09 00:17:25;;;;;;;6.50;4.10;;;;;;;16.44;51.17;100016.57;104554;1272;70341;-72
2024/04/09 00:19:53;;;;;;;6.90;4.30;;;;;;;16.40;51.12;100017.26;104547;1272;181808;-72
2024/04/09 00:22:23;;;;;;;12.10;4.80;;;;;;;16.37;51.18;100019.63;105075;1264;60064;-71
2024/04/09 00:24:50;;;;;;;10.60;4.80;;;;;;;16.35;51.24;100016.00;105130;1263;59796;-71
2024/04/09 00:27:17;;;;;;;10.70;5.10;;;;;;;16.33;51.26;100011.98;105010;1263;71916;-71
2024/04/09 00:29:45;;;;;;;7.70;4.30;;;;;;;16.30;51.25;100012.43;104687;1270;68938;-70
2024/04/09 00:32:12;;;;;;;10.60;4.60;;;;;;;16.28;51.43;100012.21;104830;1269;70877;-69
2024/04/09 00:34:39;;;;;;;7.20;4.20;;;;;;;16.25;51.38;100012.94;104899;1264;60459;-70
2024/04/09 00:37:07;;;;;;;11.20;4.20;;;;;;;16.22;51.57;100017.13;104796;1269;60416;-69
2024/04/09 00:39:34;;;;;;;7.30;4.20;;;;;;;16.19;51.53;100020.13;105128;1270;73947;-74
2024/04/09 00:42:02;;;;;;;9.10;5.00;;;;;;;16.17;51.67;100027.40;104906;1269;69001;-72
2024/04/09 00:44:31;;;;;;;9.10;4.90;;;;;;;16.12;51.72;100022.23;105195;1269;70436;-69
2024/04/09 00:46:59;;;;;;;9.70;4.80;;;;;;;16.09;51.80;100026.05;104864;1266;60553;-71
2024/04/09 00:49:27;;;;;;;12.90;5.60;;;;;;;16.06;52.01;100025.70;104781;1272;60434;-71
2024/04/09 00:51:54;;;;;;;13.10;5.30;;;;;;;16.04;51.98;100030.47;104875;1264;73853;-70
2024/04/09 00:54:22;;;;;;;9.30;4.70;;;;;;;16.02;52.18;100033.63;105480;1262;68918;-72
2024/04/09 00:56:50;;;;;;;7.10;4.40;;;;;;;15.99;52.18;100032.30;105265;1260;72686;-70
2024/04/09 00:59:17;;;;;;;12.40;5.20;;;;;;;15.98;52.15;100030.77;105648;1257;61040;-68
2024/04/09 01:01:46;;;;;;;7.90;5.10;;;;;;;15.96;52.18;100028.98;105688;1254;60678;-71
2024/04/09 01:04:13;;;;;;;10.10;4.50;;;;;;;15.93;52.24;100026.65;105572;1257;73928;-71
2024/04/09 01:06:42;;;;;;;11.90;4.70;;;;;;;15.92;52.23;100026.77;105638;1254;70402;-71
2024/04/09 01:09:09;;;;;;;11.20;4.90;;;;;;;15.90;52.29;100029.14;105899;1257;71463;-70
2024/04/09 01:11:37;;;;;;;9.80;4.40;;;;;;;15.90;52.31;100027.70;105695;1256;60552;-71
2024/04/09 01:14:04;;;;;;;8.40;4.60;;;;;;;15.91;52.27;100026.95;105563;1256;60402;-71
2024/04/09 01:16:33;;;;;;;12.50;4.90;;;;;;;15.89;52.23;100023.90;105639;1254;73636;-70
2024/04/09 01:19:00;;;;;;;8.80;4.30;;;;;;;15.89;52.35;100025.59;105695;1254;70276;-69
2024/04/09 01:21:28;;;;;;;7.30;4.00;;;;;;;15.88;52.31;100024.48;105354;1254;74827;-72
2024/04/09 01:23:57;;;;;;;7.20;4.40;;;;;;;15.86;52.39;100029.86;105873;1254;60790;-73
2024/04/09 01:26:24;;;;;;;7.40;4.10;;;;;;;15.84;52.33;100030.13;105710;1260;60598;-71
2024/04/09 01:28:52;;;;;;;8.10;4.70;;;;;;;15.82;52.33;100031.61;105476;1257;73789;-70
2024/04/09 01:31:21;;;;;;;9.40;4.80;;;;;;;15.82;52.37;100032.58;105503;1257;70917;-71
2024/04/09 01:33:51;;;;;;;9.50;4.50;;;;;;;15.82;52.36;100033.85;105900;1254;72811;-71
2024/04/09 01:36:20;;;;;;;7.90;4.40;;;;;;;15.81;52.31;100029.70;105262;1254;60505;-71
2024/04/09 01:38:48;;;;;;;9.70;4.50;;;;;;;15.80;52.39;100029.04;105481;1254;60459;-72
2024/04/09 01:41:16;;;;;;;9.70;4.90;;;;;;;15.80;52.44;100033.16;105408;1254;73821;-71
2024/04/09 01:43:44;;;;;;;7.30;4.60;;;;;;;15.81;52.44;100036.86;105352;1254;70297;-71
2024/04/09 01:46:11;;;;;;;9.20;4.70;;;;;;;15.79;52.47;100032.36;105397;1260;72618;-70
2024/04/09 01:48:38;;;;;;;6.00;4.20;;;;;;;15.80;52.61;100039.55;105311;1254;60454;-70
2024/04/09 01:51:12;;;;;;;7.70;4.30;;;;;;;15.79;52.57;100034.74;105700;1254;60349;-72
2024/04/09 01:53:43;;;;;;;6.20;4.10;;;;;;;15.80;52.71;100034.91;105789;1254;72782;-72
2024/04/09 01:56:11;;;;;;;6.50;4.10;;;;;;;15.79;52.70;100037.35;105512;1260;69953;-71
2024/04/09 01:58:39;;;;;;;7.10;4.80;;;;;;;15.79;52.57;100037.96;105344;1255;72640;-70
2024/04/09 02:01:09;;;;;;;7.80;4.80;;;;;;;15.79;52.64;100034.41;105445;1254;61199;-69
2024/04/09 02:03:40;;;;;;;7.40;4.30;;;;;;;15.78;52.67;100039.45;105685;1254;60405;-72
2024/04/09 02:06:08;;;;;;;5.60;3.90;;;;;;;15.77;52.71;100038.69;105469;1254;72678;-70
2024/04/09 02:08:37;;;;;;;6.50;4.50;;;;;;;15.76;52.86;100035.60;105282;1254;70435;-70
2024/04/09 02:11:05;;;;;;;4.40;3.50;;;;;;;15.75;52.64;100033.61;105261;1257;72559;-72
2024/04/09 02:13:32;;;;;;;7.30;4.50;;;;;;;15.73;52.80;100037.95;105264;1254;60489;-73
2024/04/09 02:16:01;;;;;;;7.70;4.30;;;;;;;15.71;52.92;100035.45;105610;1254;60539;-71
2024/04/09 02:18:28;;;;;;;6.70;4.40;;;;;;;15.71;52.92;100032.89;105472;1254;72101;-69
2024/04/09 02:20:56;;;;;;;5.80;4.30;;;;;;;15.69;52.95;100035.23;105640;1257;68839;-71
2024/04/09 02:23:23;;;;;;;7.60;4.30;;;;;;;15.67;53.05;100034.88;105476;1253;72944;-71
2024/04/09 02:25:51;;;;;;;5.40;4.00;;;;;;;15.66;53.13;100037.42;105451;1254;61194;-71
2024/04/09 02:28:18;;;;;;;6.80;4.00;;;;;;;15.64;53.17;100040.62;105773;1254;60479;-71
2024/04/09 02:30:47;;;;;;;6.80;4.40;;;;;;;15.64;53.14;100041.62;105781;1254;72814;-71
2024/04/09 02:33:14;;;;;;;8.20;4.10;;;;;;;15.63;53.18;100039.95;105475;1254;70017;-70
2024/04/09 02:35:42;;;;;;;10.00;4.70;;;;;;;15.61;53.35;100042.70;105436;1257;71195;-71
2024/04/09 02:38:10;;;;;;;6.80;4.70;;;;;;;15.59;53.24;100041.29;105937;1254;60545;-69
2024/04/09 02:40:37;;;;;;;6.60;4.40;;;;;;;15.57;53.41;100038.39;106019;1254;60367;-73
2024/04/09 02:43:04;;;;;;;7.20;4.70;;;;;;;15.55;53.45;100044.70;105452;1257;71617;-72
2024/04/09 02:45:32;;;;;;;7.60;4.50;;;;;;;15.52;53.51;100045.39;105460;1254;68960;-74
2024/04/09 02:48:00;;;;;;;5.50;3.90;;;;;;;15.49;53.60;100047.38;105808;1254;71456;-73
2024/04/09 02:50:27;;;;;;;10.10;4.20;;;;;;;15.45;53.80;100048.32;105646;1257;60540;-73
2024/04/09 02:52:55;;;;;;;6.50;4.40;;;;;;;15.42;53.79;100051.52;105569;1254;60549;-72
2024/04/09 02:55:22;;;;;;;7.40;4.10;;;;;;;15.37;53.93;100050.98;105681;1259;72563;-70
2024/04/09 02:57:49;;;;;;;6.00;4.70;;;;;;;15.32;53.97;100055.91;105669;1254;68874;-73
2024/04/09 03:00:20;;;;;;;8.90;4.20;;;;;;;15.27;54.17;100055.79;105806;1255;72656;-71
2024/04/09 03:02:51;;;;;;;7.70;4.50;;;;;;;15.23;54.28;100061.34;105891;1254;60597;-73
2024/04/09 03:05:37;;;;;;;6.20;3.90;;;;;;;15.19;54.38;100060.31;105872;1259;60460;-70
2024/04/09 03:08:04;;;;;;;6.90;5.40;;;;;;;15.12;54.59;100062.88;105542;1257;73917;-72
2024/04/09 03:10:32;;;;;;;7.40;4.90;;;;;;;15.07;54.53;100066.54;105964;1253;70203;-71
2024/04/09 03:13:00;;;;;;;6.70;4.50;;;;;;;15.01;54.85;100065.24;105604;1259;71529;-72
2024/04/09 03:15:29;;;;;;;6.70;5.00;;;;;;;14.95;55.05;100068.00;105875;1257;60532;-72
2024/04/09 03:17:57;;;;;;;9.70;5.10;;;;;;;14.89;55.36;100067.80;105663;1254;60510;-72
2024/04/09 03:20:24;;;;;;;7.90;4.60;;;;;;;14.83;55.48;100066.96;105440;1259;71943;-75
2024/04/09 03:22:51;;;;;;;6.80;4.70;;;;;;;14.77;55.78;100070.39;105617;1259;69143;-73
2024/04/09 03:25:19;;;;;;;7.90;4.60;;;;;;;14.72;55.76;100073.05;105787;1256;72624;-70
2024/04/09 03:27:47;;;;;;;9.40;4.90;;;;;;;14.69;56.19;100076.70;105427;1254;60484;-71
2024/04/09 03:30:14;;;;;;;9.70;4.90;;;;;;;14.65;56.16;100078.39;105271;1254;60578;-70
2024/04/09 03:32:42;;;;;;;11.10;4.40;;;;;;;14.62;56.31;100079.87;105616;1254;73960;-70
2024/04/09 03:35:09;;;;;;;18.50;12.00;;;;;;;14.59;56.40;100081.88;105617;1254;68790;-70
2024/04/09 03:37:37;;;;;;;7.80;5.60;;;;;;;14.55;56.31;100080.09;105842;1256;71511;-73
2024/04/09 03:40:05;;;;;;;9.70;5.40;;;;;;;14.53;56.56;100083.02;105764;1257;60483;-72
2024/04/09 03:42:32;;;;;;;7.30;5.20;;;;;;;14.53;56.67;100083.41;105794;1253;60634;-74
2024/04/09 03:45:00;;;;;;;8.30;4.80;;;;;;;14.51;56.77;100079.48;106007;1253;72622;-69
2024/04/09 03:47:28;;;;;;;8.50;4.90;;;;;;;14.48;56.90;100083.61;105908;1257;68608;-71
2024/04/09 03:49:56;;;;;;;10.50;4.90;;;;;;;14.45;56.86;100087.15;105509;1254;71476;-72
2024/04/09 03:52:24;;;;;;;8.50;5.10;;;;;;;14.43;56.93;100084.20;105665;1259;60417;-71
2024/04/09 03:54:52;;;;;;;7.70;5.70;;;;;;;14.41;57.13;100085.15;105841;1254;60425;-72
2024/04/09 03:57:19;;;;;;;9.40;4.40;;;;;;;14.43;57.11;100094.79;105441;1254;72818;-71
2024/04/09 03:59:46;;;;;;;7.50;5.50;;;;;;;14.43;57.22;100095.49;105542;1254;70220;-71
2024/04/09 04:02:13;;;;;;;8.00;5.70;;;;;;;14.44;57.38;100090.95;105349;1254;71511;-70
2024/04/09 04:04:41;;;;;;;8.50;5.60;;;;;;;14.46;57.42;100090.90;105460;1253;60565;-73
2024/04/09 04:07:12;;;;;;;9.40;5.20;;;;;;;14.49;57.36;100089.54;105821;1254;60565;-73
2024/04/09 04:09:39;;;;;;;8.30;5.20;;;;;;;14.54;57.36;100092.48;105878;1254;72968;-72
2024/04/09 04:12:07;;;;;;;9.20;5.20;;;;;;;14.59;57.26;100095.42;105424;1259;69402;-70
2024/04/09 04:14:34;;;;;;;4.90;4.30;;;;;;;14.63;57.23;100096.50;105269;1257;74651;-70
2024/04/09 04:17:03;;;;;;;8.40;5.20;;;;;;;14.68;56.92;100099.27;105768;1254;61319;-70
2024/04/09 04:19:31;;;;;;;6.20;4.80;;;;;;;14.89;56.59;100101.56;105956;1253;61232;-71
2024/04/09 04:21:58;;;;;;;12.30;5.10;;;;;;;15.20;55.81;100097.95;105431;1255;73356;-71
2024/04/09 04:24:29;;;;;;;7.80;5.10;;;;;;;15.37;55.23;100104.19;105345;1254;69985;-73
2024/04/09 04:26:56;;;;;;;7.80;5.00;;;;;;;15.41;55.06;100099.65;105690;1256;72703;-72
2024/04/09 04:29:24;;;;;;;6.60;5.20;;;;;;;15.40;54.92;100102.00;105811;1254;62838;-73
2024/04/09 04:31:52;;;;;;;6.90;4.90;;;;;;;15.41;54.99;100100.71;105426;1254;61651;-72
2024/04/09 04:34:19;;;;;;;8.50;5.10;;;;;;;15.42;54.89;100102.27;105914;1254;74581;-73
2024/04/09 04:36:47;;;;;;;5.70;4.00;;;;;;;15.44;54.78;100106.48;105450;1257;69520;-74
2024/04/09 04:39:15;;;;;;;8.10;5.10;;;;;;;15.47;54.65;100106.92;105756;1254;72375;-71
2024/04/09 04:41:42;;;;;;;9.30;5.30;;;;;;;15.50;54.58;100107.23;105701;1259;61295;-73
2024/04/09 04:44:10;;;;;;;10.00;4.60;;;;;;;15.54;54.45;100103.77;105813;1254;61262;-73
2024/04/09 04:46:37;;;;;;;7.10;4.70;;;;;;;15.59;54.32;100105.13;105539;1254;73610;-73
2024/04/09 04:49:04;;;;;;;7.50;4.10;;;;;;;15.63;54.31;100103.68;105709;1259;69211;-73
2024/04/09 04:51:32;;;;;;;6.80;4.30;;;;;;;15.68;54.04;100105.30;105844;1253;72651;-71
2024/04/09 04:53:59;;;;;;;11.60;5.30;;;;;;;15.76;53.78;100106.48;105820;1253;61437;-73
2024/04/09 04:56:26;;;;;;;11.60;5.50;;;;;;;15.85;53.63;100102.31;105734;1254;61828;-71
2024/04/09 04:58:54;;;;;;;6.70;4.70;;;;;;;15.94;53.31;100103.77;105506;1254;73973;-71
2024/04/09 05:01:21;;;;;;;10.80;4.80;;;;;;;16.01;53.13;100105.36;106009;1257;70151;-72
2024/04/09 05:03:51;;;;;;;11.60;3.80;;;;;;;16.08;52.76;100107.63;105504;1257;71472;-75
2024/04/09 05:06:19;;;;;;;8.40;4.40;;;;;;;16.18;52.66;100109.84;106213;1254;61341;-76
2024/04/09 05:08:46;;;;;;;12.00;4.90;;;;;;;16.26;52.50;100110.15;106060;1253;61209;-76
2024/04/09 05:11:13;;;;;;;10.70;4.00;;;;;;;16.36;52.26;100111.65;106024;1257;74602;-77
2024/04/09 05:13:41;;;;;;;8.00;3.80;;;;;;;16.42;52.13;100108.80;106117;1257;68853;-77
2024/04/09 05:16:08;;;;;;;8.70;4.60;;;;;;;16.48;51.92;100105.53;106144;1253;72706;-74
2024/04/09 05:18:35;;;;;;;6.60;4.50;;;;;;;16.56;51.97;100106.65;106528;1257;61305;-75
2024/04/09 05:21:04;;;;;;;6.70;4.20;;;;;;;16.62;51.63;100109.16;105911;1254;61327;-75
2024/04/09 05:23:31;;;;;;;8.20;3.70;;;;;;;16.69;51.47;100109.61;106030;1254;75538;-75
2024/04/09 05:25:59;;;;;;;5.70;3.70;;;;;;;16.75;51.11;100107.41;106033;1254;72276;-74
2024/04/09 05:28:26;;;;;;;11.60;4.00;;;;;;;16.83;50.91;100116.63;105871;1254;73628;-76
2024/04/09 05:30:53;;;;;;;5.60;3.50;;;;;;;16.90;50.66;100119.30;105935;1253;61279;-75
2024/04/09 05:33:21;;;;;;;6.70;3.90;;;;;;;16.96;50.19;100118.01;106065;1254;61241;-72
2024/04/09 05:35:51;;;;;;;5.10;3.30;;;;;;;17.02;50.17;100116.88;106652;1254;76896;-77
2024/04/09 05:38:18;;;;;;;10.00;4.40;;;;;;;17.08;50.00;100114.42;107767;1254;70901;-75
2024/04/09 05:40:53;;;;;;;5.80;3.80;;;;;;;17.15;50.08;100108.00;107803;1254;71246;-78
2024/04/09 05:43:20;;;;;;;6.60;4.00;;;;;;;17.24;49.84;100111.16;106827;1252;61261;-79
2024/04/09 05:45:48;;;;;;;7.30;4.10;;;;;;;17.31;49.65;100111.42;106165;1254;62321;-77
2024/04/09 05:48:16;;;;;;;6.10;4.40;;;;;;;17.38;49.03;100110.31;106259;1254;74137;-77
2024/04/09 05:50:44;;;;;;;6.60;3.50;;;;;;;17.44;48.93;100112.82;106504;1254;70933;-79
2024/04/09 05:53:12;;;;;;;6.10;3.40;;;;;;;17.50;48.54;100117.57;107437;1253;73756;-78
2024/04/09 05:55:39;;;;;;;6.90;4.30;;;;;;;17.55;48.28;100119.06;109000;1252;61145;-80
2024/04/09 05:58:07;;;;;;;6.00;3.60;;;;;;;17.62;47.81;100122.42;108024;1253;61530;-77
2024/04/09 06:00:34;;;;;;;4.60;3.50;;;;;;;17.68;47.58;100123.59;107207;1254;75125;-78
2024/04/09 06:03:02;;;;;;;4.20;3.20;;;;;;;17.73;47.55;100122.32;106372;1254;68833;-79
2024/04/09 06:05:29;;;;;;;4.60;3.30;;;;;;;17.80;47.28;100125.13;106077;1254;73932;-78
2024/04/09 06:07:56;;;;;;;6.40;3.40;;;;;;;17.86;47.07;100124.91;106062;1254;62449;-79
2024/04/09 06:10:24;;;;;;;8.40;4.00;;;;;;;17.92;46.99;100124.41;106141;1253;61256;-80
2024/04/09 06:12:51;;;;;;;6.40;3.50;;;;;;;17.96;46.98;100122.35;105982;1253;73997;-78
2024/04/09 06:15:18;;;;;;;4.70;3.10;;;;;;;18.04;46.72;100132.32;105941;1259;71326;-78
2024/04/09 06:17:46;;;;;;;4.40;3.10;;;;;;;18.13;46.51;100128.38;106009;1254;70847;-79
2024/04/09 06:20:14;;;;;;;4.40;2.90;;;;;;;18.19;46.56;100128.91;106027;1254;61690;-80
2024/04/09 06:22:41;;;;;;;5.40;3.20;;;;;;;18.27;46.67;100130.35;106015;1259;61285;-79
2024/04/09 06:25:08;;;;;;;4.10;3.20;;;;;;;18.37;46.56;100134.98;106411;1257;74714;-79
2024/04/09 06:27:36;;;;;;;8.70;3.70;;;;;;;18.47;46.40;100136.27;106082;1254;70630;-78
2024/04/09 06:30:07;;;;;;;6.00;3.10;;;;;;;18.58;46.47;100137.98;106183;1253;74793;-78
2024/04/09 06:32:35;;;;;;;3.90;3.10;;;;;;;18.68;46.21;100139.79;106328;1253;61334;-79
2024/04/09 06:35:03;;;;;;;9.40;3.30;;;;;;;18.77;46.26;100129.45;106148;1257;61592;-81
2024/04/09 06:37:31;;;;;;;8.90;3.20;;;;;;;18.87;46.21;100132.75;106029;1257;74667;-80
2024/04/09 06:39:59;;;;;;;5.50;3.00;;;;;;;18.98;45.82;100136.52;106112;1254;72775;-80
2024/04/09 06:42:27;;;;;;;6.00;3.10;;;;;;;19.04;45.52;100138.11;106175;1253;74590;-80
2024/04/09 06:44:54;;;;;;;6.70;2.70;;;;;;;19.09;45.53;100141.65;106030;1253;62289;-79
2024/04/09 06:47:22;;;;;;;3.40;2.70;;;;;;;19.13;45.37;100139.44;106617;1259;62322;-79
2024/04/09 06:49:49;;;;;;;9.30;2.90;;;;;;;19.15;45.42;100135.86;108460;1252;74995;-80
2024/04/09 06:52:18;;;;;;;5.40;2.40;;;;;;;19.21;45.21;100138.77;108963;1253;71528;-80
2024/04/09 06:54:45;;;;;;;6.60;2.80;;;;;;;19.29;45.11;100137.20;108252;1251;72210;-80
2024/04/09 06:57:13;;;;;;;4.50;2.70;;;;;;;19.37;44.85;100142.41;106914;1253;61246;-79
2024/04/09 06:59:40;;;;;;;2.70;2.40;;;;;;;19.45;44.75;100134.41;108522;1252;61195;-78
2024/04/09 07:02:08;;;;;;;4.60;2.40;;;;;;;19.53;44.72;100136.30;106811;1256;74787;-79
2024/04/09 07:04:35;;;;;;;4.10;2.80;;;;;;;19.61;44.75;100133.89;107209;1253;73751;-78
2024/04/09 07:07:03;;;;;;;4.10;2.80;;;;;;;19.70;44.65;100129.08;106917;1254;72827;-77
2024/04/09 07:09:31;;;;;;;7.60;2.70;;;;;;;19.80;44.72;100128.19;106894;1254;61229;-80
2024/04/09 07:11:59;;;;;;;3.30;2.30;;;;;;;19.92;44.52;100128.14;107086;1254;61324;-79
2024/04/09 07:14:26;;;;;;;3.80;2.70;;;;;;;20.02;44.53;100129.55;108584;1252;75532;-78
2024/04/09 07:16:54;;;;;;;4.20;2.70;;;;;;;20.13;44.22;100134.91;107133;1252;70561;-81
2024/04/09 07:19:21;;;;;;;4.10;2.40;;;;;;;20.23;44.16;100130.64;106222;1254;72148;-79
2024/04/09 07:21:48;;;;;;;5.00;2.90;;;;;;;20.33;43.85;100130.33;106465;1257;61300;-81
2024/04/09 07:24:16;;;;;;;6.10;2.70;;;;;;;20.39;43.83;100132.14;106494;1256;62125;-79
2024/04/09 07:26:44;;;;;;;3.40;2.30;;;;;;;20.45;43.78;100137.61;106422;1254;77727;-81
2024/04/09 07:29:11;;;;;;;7.10;3.00;;;;;;;20.48;43.71;100138.57;106762;1253;71442;-80
2024/04/09 07:31:41;;;;;;;3.00;2.40;;;;;;;20.50;43.56;100139.13;106178;1262;72562;-77
2024/04/09 07:34:08;;;;;;;5.00;2.60;;;;;;;20.52;43.66;100126.02;106565;1252;62262;-77
2024/04/09 07:36:35;;;;;;;4.20;2.70;;;;;;;20.55;43.72;100124.17;106539;1252;62425;-78
2024/04/09 07:39:03;;;;;;;5.00;3.10;;;;;;;20.62;43.78;100124.66;106509;1256;74765;-78
2024/04/09 07:41:31;;;;;;;4.60;3.00;;;;;;;20.71;43.88;100118.46;106405;1257;69196;-78
2024/04/09 07:43:59;;;;;;;5.20;3.40;;;;;;;20.84;43.71;100123.57;106552;1256;71321;-78
2024/04/09 07:46:27;;;;;;;5.40;2.70;;;;;;;20.96;43.48;100121.23;108566;1252;62347;-77
2024/04/09 07:48:59;;;;;;;3.70;2.70;;;;;;;21.08;43.25;100122.95;109108;1253;60655;-79
2024/04/09 07:51:28;;;;;;;4.50;2.70;;;;;;;21.20;43.12;100120.84;109051;1252;76115;-80
2024/04/09 07:53:56;;;;;;;2.60;2.40;;;;;;;21.29;42.76;100118.55;109118;1253;69057;-80
2024/04/09 07:56:24;;;;;;;4.80;2.60;;;;;;;21.35;42.42;100118.88;108461;1252;73894;-78
2024/04/09 07:58:52;;;;;;;5.50;3.00;;;;;;;21.35;42.46;100108.78;107223;1254;61275;-78
2024/04/09 08:01:19;;;;;;;3.20;2.70;;;;;;;21.38;42.70;100103.07;106529;1252;62084;-79
2024/04/09 08:03:47;;;;;;;3.20;2.50;;;;;;;21.46;42.64;100105.27;106572;1254;76681;-79
2024/04/09 08:06:15;;;;;;;4.80;2.70;;;;;;;21.53;42.39;100109.37;106847;1251;69183;-79
2024/04/09 08:08:43;;;;;;;4.70;2.90;;;;;;;21.61;42.08;100106.95;106497;1254;71774;-77
2024/04/09 08:11:14;;;;;;;5.50;3.00;;;;;;;21.67;41.86;100108.74;106862;1251;61313;-77
2024/04/09 08:13:42;;;;;;;4.50;2.30;;;;;;;21.71;41.87;100097.98;106747;1254;61352;-79
2024/04/09 08:16:10;;;;;;;5.80;2.00;;;;;;;21.77;41.82;100099.92;106982;1253;75595;-77
2024/04/09 08:18:38;;;;;;;3.80;2.40;;;;;;;21.83;41.51;100105.55;106575;1254;69457;-76
2024/04/09 08:21:06;;;;;;;2.60;2.30;;;;;;;21.88;41.55;100096.53;106861;1255;72911;-75
2024/04/09 08:23:34;;;;;;;3.80;3.10;;;;;;;21.94;41.51;100096.02;106209;1253;61296;-75
2024/04/09 08:26:02;;;;;;;5.60;2.40;;;;;;;21.98;41.26;100099.86;106177;1253;62394;-73
2024/04/09 08:28:29;;;;;;;3.70;2.60;;;;;;;22.03;41.22;100090.18;106147;1259;75459;-77
2024/04/09 08:30:56;;;;;;;7.00;2.60;;;;;;;22.08;41.17;100087.70;106205;1258;69609;-77
2024/04/09 08:33:25;;;;;;;3.90;2.10;;;;;;;22.15;40.81;100091.86;105946;1251;74833;-77
2024/04/09 08:35:53;;;;;;;3.40;2.30;;;;;;;22.24;41.04;100072.65;106411;1254;61251;-77
2024/04/09 08:38:22;;;;;;;2.70;2.40;;;;;;;22.38;40.94;100076.02;106646;1253;61301;-76
2024/04/09 08:40:50;;;;;;;5.70;2.70;;;;;;;22.54;40.89;100074.83;107340;1252;75578;-77
2024/04/09 08:43:17;;;;;;;4.60;2.10;;;;;;;22.76;40.24;100081.66;108051;1253;71083;-73
2024/04/09 08:45:46;;;;;;;3.50;2.10;;;;;;;22.92;39.66;100076.34;107825;1257;72680;-74
2024/04/09 08:48:16;;;;;;;4.20;2.30;;;;;;;23.01;39.27;100074.95;107112;1254;61896;-73
2024/04/09 08:50:49;;;;;;;4.10;2.50;;;;;;;23.10;39.50;100074.66;108224;1252;61224;-75
2024/04/09 08:53:18;;;;;;;5.50;2.40;;;;;;;23.16;38.98;100075.46;108119;1259;74253;-74
2024/04/09 08:55:46;;;;;;;5.10;2.40;;;;;;;23.13;38.83;100076.88;107803;1254;69317;-75
2024/04/09 08:58:13;;;;;;;4.10;2.40;;;;;;;23.14;39.25;100068.92;107136;1257;72350;-76
2024/04/09 09:00:41;;;;;;;2.20;2.00;;;;;;;23.27;39.16;100067.14;107392;1253;60567;-74
2024/04/09 09:03:09;;;;;;;4.30;2.40;;;;;;;23.46;39.00;100052.73;107498;1254;61786;-76
2024/04/09 09:05:37;;;;;;;3.70;2.40;;;;;;;23.65;38.76;100052.77;107667;1254;76616;-77
2024/04/09 09:08:05;;;;;;;3.20;2.00;;;;;;;23.90;38.12;100065.88;107228;1259;71963;-76
2024/04/09 09:10:35;;;;;;;4.20;2.20;;;;;;;24.26;37.62;100067.95;107239;1253;75285;-75
2024/04/09 09:13:04;;;;;;;2.80;2.10;;;;;;;24.68;37.06;100067.27;107010;1254;61243;-76
2024/04/09 09:15:32;;;;;;;2.60;2.40;;;;;;;25.08;36.13;100064.61;107159;1254;61262;-77
2024/04/09 09:17:59;;;;;;;2.80;2.00;;;;;;;25.40;36.01;100047.27;107058;1254;76646;-76
2024/04/09 09:20:27;;;;;;;6.50;2.20;;;;;;;25.75;35.75;100038.57;107018;1252;71342;-78
2024/04/09 09:22:55;;;;;;;5.50;2.70;;;;;;;26.26;35.28;100037.33;106957;1255;73037;-77
2024/04/09 09:25:23;;;;;;;3.30;2.20;;;;;;;26.87;34.49;100042.90;107036;1254;61203;-77
2024/04/09 09:28:09;;;;;;;2.70;2.10;;;;;;;27.33;33.25;100062.20;106875;1254;62012;-77
2024/04/09 09:30:41;;;;;;;3.90;2.90;;;;;;;27.36;32.49;100048.30;106726;1254;75439;-76
2024/04/09 09:33:14;;;;;;;3.00;2.30;;;;;;;27.29;32.91;100042.68;106966;1254;72466;-76
2024/04/09 09:35:50;;;;;;;2.50;2.10;;;;;;;27.48;32.59;100047.86;107454;1254;71026;-82
2024/04/09 09:38:21;;;;;;;3.00;2.30;;;;;;;27.75;31.95;100040.20;108573;1253;60913;-77
2024/04/09 09:40:49;;;;;;;4.60;2.60;;;;;;;28.06;31.76;100038.76;109290;1251;61376;-80
2024/04/09 09:43:18;;;;;;;2.50;2.30;;;;;;;28.40;31.37;100025.76;109570;1252;75671;-81
2024/04/09 09:45:45;;;;;;;4.60;2.40;;;;;;;28.66;31.06;100022.60;109341;1253;69261;-81
2024/04/09 09:48:20;;;;;;;2.60;2.40;;;;;;;28.87;30.83;100021.87;107757;1254;74891;-82
2024/04/09 09:50:48;;;;;;;5.00;2.50;;;;;;;29.09;30.21;100033.93;107690;1253;61010;-81
2024/04/09 09:53:17;;;;;;;5.30;2.50;;;;;;;29.09;29.94;100029.60;109090;1255;61329;-82
2024/04/09 09:55:45;;;;;;;3.00;2.70;;;;;;;28.94;30.36;100027.41;109034;1253;78017;-81
2024/04/09 09:58:19;;;;;;;2.80;2.30;;;;;;;28.93;30.27;100017.52;108890;1254;69031;-84
2024/04/09 10:00:50;;;;;;;2.80;2.60;;;;;;;28.93;30.03;100023.20;108918;1253;73760;-82
2024/04/09 10:03:18;;;;;;;2.70;2.50;;;;;;;29.03;30.00;100009.19;109118;1252;60004;-84
2024/04/09 10:05:46;;;;;;;4.20;2.60;;;;;;;29.30;29.62;100005.67;108626;1253;61126;-84
2024/04/09 10:08:35;;;;;;;3.10;2.70;;;;;;;29.57;29.05;100007.84;108776;1252;75639;-84
2024/04/09 10:11:03;;;;;;;2.80;2.60;;;;;;;29.74;28.66;100003.21;108480;1254;68930;-82
2024/04/09 10:13:31;;;;;;;2.90;2.60;;;;;;;29.87;28.82;99998.04;108314;1253;74845;-81
2024/04/09 10:16:00;;;;;;;4.00;2.70;;;;;;;30.18;28.42;100001.04;106875;1254;61190;-81
2024/04/09 10:18:28;;;;;;;4.10;2.70;;;;;;;30.50;27.37;100023.56;106594;1254;61359;-82
2024/04/09 10:20:56;;;;;;;4.30;2.00;;;;;;;30.38;26.40;100021.63;107761;1254;75618;-83
2024/04/09 10:23:23;;;;;;;2.70;2.40;;;;;;;30.22;26.31;100014.95;108842;1254;72999;-79
2024/04/09 10:25:51;;;;;;;3.20;2.40;;;;;;;30.18;26.15;100012.05;108331;1253;73537;-83
2024/04/09 10:28:27;;;;;;;4.10;2.50;;;;;;;30.29;26.21;100016.30;107374;1259;61210;-83
2024/04/09 10:31:03;;;;;;;3.30;2.60;;;;;;;30.31;26.68;100009.10;107607;1252;61203;-83
2024/04/09 10:33:35;;;;;;;2.60;2.30;;;;;;;30.47;26.72;100006.67;107831;1251;73986;-81
2024/04/09 10:36:04;;;;;;;2.90;2.30;;;;;;;30.84;26.64;99997.99;108923;1254;68769;-80
2024/04/09 10:38:31;;;;;;;2.40;2.20;;;;;;;31.06;26.47;100015.23;109328;1254;73519;-81
2024/04/09 10:41:00;;;;;;;3.80;2.40;;;;;;;31.15;26.14;100006.29;107957;1254;61202;-84
2024/04/09 10:43:28;;;;;;;3.90;2.10;;;;;;;31.21;26.03;99989.48;107384;1254;60958;-84
2024/04/09 10:45:56;;;;;;;2.80;2.20;;;;;;;31.11;25.95;99993.37;106300;1253;74113;-78
2024/04/09 10:48:40;;;;;;;2.40;2.20;;;;;;;30.80;26.15;100012.46;106128;1252;70699;-82
2024/04/09 10:51:09;;;;;;;3.90;2.20;;;;;;;30.43;26.19;100001.89;106177;1253;74880;-83
2024/04/09 10:53:37;;;;;;;2.80;1.80;;;;;;;30.21;26.37;99997.39;106056;1253;61318;-82
2024/04/09 10:56:05;;;;;;;2.90;2.70;;;;;;;30.11;26.29;99983.26;106251;1252;62311;-80
2024/04/09 10:58:36;;;;;;;2.60;2.40;;;;;;;30.16;26.65;99987.23;106183;1254;74761;-81
2024/04/09 11:01:04;;;;;;;3.80;2.60;;;;;;;30.41;26.41;99986.17;106381;1254;72710;-82
2024/04/09 11:03:32;;;;;;;5.90;2.90;;;;;;;30.79;26.42;99969.44;106479;1259;73146;-81
2024/04/09 11:06:01;;;;;;;2.60;2.30;;;;;;;31.31;26.03;99983.65;106388;1254;61266;-80
2024/04/09 11:08:32;;;;;;;3.40;2.50;;;;;;;31.70;25.42;99975.13;106403;1254;61347;-78
2024/04/09 11:11:00;;;;;;;5.00;2.50;;;;;;;31.93;25.40;99976.00;105987;1259;74468;-78
2024/04/09 11:13:29;;;;;;;3.50;2.50;;;;;;;32.14;24.99;99975.67;106436;1254;72030;-82
2024/04/09 11:15:57;;;;;;;3.60;2.60;;;;;;;32.16;24.70;99972.33;106329;1259;75319;-78
2024/04/09 11:18:24;;;;;;;3.00;2.40;;;;;;;31.98;25.08;99960.52;106356;1256;61237;-79
2024/04/09 11:20:57;;;;;;;8.50;7.70;;;;;;;32.04;25.05;99969.64;106689;1254;62808;-78
2024/04/09 11:23:25;;;;;;;3.60;2.40;;;;;;;32.41;25.01;99954.20;108126;1252;74634;-79